Bay Springs, Mississippi
Current Conditions -  °F | °C
As of 4:15 PM on Tuesday 21 Oct 2014 (Local Time) from KPIB Reporting Station
Clear Clear  
Wind Chill: 79°   Ceiling: Unl
Heat Index: 79°   Visibility: 10mi
Dew Point: 55°   Wind: 7mph
Humidity: 44%   Direction: 340°NNW
Pressure: 30.01"   Gusts: NA
Location:  31.98°N, 89.29°W
Report Text: KPIB 212115Z AUTO 34006KT 10SM CLR 26/13 A3001 RMK AO1
Loading
Personal Weather Stations






























Interactive Weather Map
Tropical Storm Tracking
New forecast layout! Learn more

10-Day Weather Forecast

Advertisements
Track Severe Weather on mobile